sensor_id;sensor_type;location;lat;lon;timestamp;P1;durP1;ratioP1;P2;durP2;ratioP2
3633;SDS011;1833;42.718;23.270;2022-07-29T00:01:52;29.83;;;27.00;;
3633;SDS011;1833;42.718;23.270;2022-07-29T00:04:19;29.30;;;26.90;;
3633;SDS011;1833;42.718;23.270;2022-07-29T00:06:47;31.00;;;28.60;;
3633;SDS011;1833;42.718;23.270;2022-07-29T00:09:14;30.20;;;27.70;;
3633;SDS011;1833;42.718;23.270;2022-07-29T00:11:43;30.13;;;27.53;;
3633;SDS011;1833;42.718;23.270;2022-07-29T00:14:10;30.40;;;27.63;;
3633;SDS011;1833;42.718;23.270;2022-07-29T00:16:37;30.63;;;27.97;;
3633;SDS011;1833;42.718;23.270;2022-07-29T00:19:05;30.93;;;28.00;;
3633;SDS011;1833;42.718;23.270;2022-07-29T00:21:32;29.93;;;27.63;;
3633;SDS011;1833;42.718;23.270;2022-07-29T00:23:59;29.10;;;26.77;;
3633;SDS011;1833;42.718;23.270;2022-07-29T00:26:26;31.17;;;28.60;;
3633;SDS011;1833;42.718;23.270;2022-07-29T00:28:58;31.67;;;29.07;;
3633;SDS011;1833;42.718;23.270;2022-07-29T00:31:25;30.90;;;27.80;;
3633;SDS011;1833;42.718;23.270;2022-07-29T00:33:54;31.93;;;29.13;;
3633;SDS011;1833;42.718;23.270;2022-07-29T00:36:21;31.13;;;28.50;;
3633;SDS011;1833;42.718;23.270;2022-07-29T00:38:48;30.53;;;28.00;;
3633;SDS011;1833;42.718;23.270;2022-07-29T00:41:15;31.10;;;28.17;;
3633;SDS011;1833;42.718;23.270;2022-07-29T00:43:43;31.07;;;28.23;;
3633;SDS011;1833;42.718;23.270;2022-07-29T00:46:11;30.83;;;28.33;;
3633;SDS011;1833;42.718;23.270;2022-07-29T00:48:39;30.27;;;27.37;;
3633;SDS011;1833;42.718;23.270;2022-07-29T00:51:06;30.53;;;27.93;;
3633;SDS011;1833;42.718;23.270;2022-07-29T00:53:35;33.97;;;30.57;;
3633;SDS011;1833;42.718;23.270;2022-07-29T00:56:03;31.97;;;28.97;;
3633;SDS011;1833;42.718;23.270;2022-07-29T00:58:30;29.47;;;26.77;;
3633;SDS011;1833;42.718;23.270;2022-07-29T01:00:58;29.77;;;27.17;;
3633;SDS011;1833;42.718;23.270;2022-07-29T01:03:27;30.10;;;27.00;;
3633;SDS011;1833;42.718;23.270;2022-07-29T01:05:54;29.30;;;26.87;;
3633;SDS011;1833;42.718;23.270;2022-07-29T01:08:21;30.23;;;27.33;;
3633;SDS011;1833;42.718;23.270;2022-07-29T01:10:50;31.83;;;29.00;;
3633;SDS011;1833;42.718;23.270;2022-07-29T01:13:17;30.23;;;27.53;;
3633;SDS011;1833;42.718;23.270;2022-07-29T01:15:47;31.33;;;28.37;;
3633;SDS011;1833;42.718;23.270;2022-07-29T01:18:16;31.47;;;28.47;;
3633;SDS011;1833;42.718;23.270;2022-07-29T01:20:56;31.77;;;28.53;;
3633;SDS011;1833;42.718;23.270;2022-07-29T01:23:34;30.70;;;27.70;;
3633;SDS011;1833;42.718;23.270;2022-07-29T01:26:13;31.90;;;28.80;;
3633;SDS011;1833;42.718;23.270;2022-07-29T01:28:51;31.23;;;28.40;;
3633;SDS011;1833;42.718;23.270;2022-07-29T01:31:20;30.77;;;27.90;;
3633;SDS011;1833;42.718;23.270;2022-07-29T01:33:50;30.47;;;27.90;;
3633;SDS011;1833;42.718;23.270;2022-07-29T01:36:22;31.03;;;27.03;;
3633;SDS011;1833;42.718;23.270;2022-07-29T01:38:51;31.17;;;28.23;;
3633;SDS011;1833;42.718;23.270;2022-07-29T01:41:21;31.73;;;28.60;;
3633;SDS011;1833;42.718;23.270;2022-07-29T01:43:51;33.33;;;29.83;;
3633;SDS011;1833;42.718;23.270;2022-07-29T01:46:21;31.33;;;28.20;;
3633;SDS011;1833;42.718;23.270;2022-07-29T01:48:52;31.60;;;28.77;;
3633;SDS011;1833;42.718;23.270;2022-07-29T01:51:24;30.83;;;27.93;;
3633;SDS011;1833;42.718;23.270;2022-07-29T01:53:53;29.97;;;27.07;;
3633;SDS011;1833;42.718;23.270;2022-07-29T01:56:21;29.57;;;27.00;;
3633;SDS011;1833;42.718;23.270;2022-07-29T01:58:51;30.57;;;27.97;;
3633;SDS011;1833;42.718;23.270;2022-07-29T02:01:19;30.97;;;28.07;;
3633;SDS011;1833;42.718;23.270;2022-07-29T02:03:47;31.07;;;27.60;;
3633;SDS011;1833;42.718;23.270;2022-07-29T02:06:15;30.50;;;27.90;;
3633;SDS011;1833;42.718;23.270;2022-07-29T02:08:43;30.07;;;27.27;;
3633;SDS011;1833;42.718;23.270;2022-07-29T02:11:11;29.00;;;26.40;;
3633;SDS011;1833;42.718;23.270;2022-07-29T02:13:39;30.10;;;27.40;;
3633;SDS011;1833;42.718;23.270;2022-07-29T02:16:09;30.43;;;27.60;;
3633;SDS011;1833;42.718;23.270;2022-07-29T02:18:37;29.33;;;26.63;;
3633;SDS011;1833;42.718;23.270;2022-07-29T02:21:06;31.90;;;28.67;;
3633;SDS011;1833;42.718;23.270;2022-07-29T02:23:34;30.00;;;27.13;;
3633;SDS011;1833;42.718;23.270;2022-07-29T02:26:02;30.50;;;27.40;;
3633;SDS011;1833;42.718;23.270;2022-07-29T02:28:30;28.90;;;26.17;;
3633;SDS011;1833;42.718;23.270;2022-07-29T02:30:59;30.37;;;27.33;;
3633;SDS011;1833;42.718;23.270;2022-07-29T02:33:29;30.17;;;27.53;;
3633;SDS011;1833;42.718;23.270;2022-07-29T02:35:57;31.60;;;28.80;;
3633;SDS011;1833;42.718;23.270;2022-07-29T02:38:25;31.10;;;28.33;;
3633;SDS011;1833;42.718;23.270;2022-07-29T02:41:12;30.87;;;28.20;;
3633;SDS011;1833;42.718;23.270;2022-07-29T02:43:40;29.73;;;26.77;;
3633;SDS011;1833;42.718;23.270;2022-07-29T02:46:10;32.80;;;26.20;;
3633;SDS011;1833;42.718;23.270;2022-07-29T02:48:41;30.63;;;27.87;;
3633;SDS011;1833;42.718;23.270;2022-07-29T02:51:11;32.93;;;27.53;;
3633;SDS011;1833;42.718;23.270;2022-07-29T02:53:39;31.43;;;28.63;;
3633;SDS011;1833;42.718;23.270;2022-07-29T02:56:10;30.33;;;27.60;;
3633;SDS011;1833;42.718;23.270;2022-07-29T02:58:38;31.47;;;28.37;;
3633;SDS011;1833;42.718;23.270;2022-07-29T03:01:08;31.43;;;28.23;;
3633;SDS011;1833;42.718;23.270;2022-07-29T03:03:40;31.23;;;28.20;;
3633;SDS011;1833;42.718;23.270;2022-07-29T03:06:09;30.60;;;27.40;;
3633;SDS011;1833;42.718;23.270;2022-07-29T03:08:37;33.10;;;30.00;;
3633;SDS011;1833;42.718;23.270;2022-07-29T03:11:04;34.80;;;31.07;;
3633;SDS011;1833;42.718;23.270;2022-07-29T03:13:32;34.73;;;31.23;;
3633;SDS011;1833;42.718;23.270;2022-07-29T03:15:59;37.60;;;31.70;;
3633;SDS011;1833;42.718;23.270;2022-07-29T03:18:27;34.60;;;31.40;;
3633;SDS011;1833;42.718;23.270;2022-07-29T03:20:56;34.07;;;30.80;;
3633;SDS011;1833;42.718;23.270;2022-07-29T03:23:23;33.50;;;30.50;;
3633;SDS011;1833;42.718;23.270;2022-07-29T03:25:53;33.27;;;30.00;;
3633;SDS011;1833;42.718;23.270;2022-07-29T03:28:20;38.40;;;34.50;;
3633;SDS011;1833;42.718;23.270;2022-07-29T03:30:48;39.73;;;33.70;;
3633;SDS011;1833;42.718;23.270;2022-07-29T03:33:15;35.10;;;31.60;;
3633;SDS011;1833;42.718;23.270;2022-07-29T03:35:43;35.10;;;31.40;;
3633;SDS011;1833;42.718;23.270;2022-07-29T03:38:11;32.83;;;29.63;;
3633;SDS011;1833;42.718;23.270;2022-07-29T03:40:40;34.60;;;31.40;;
3633;SDS011;1833;42.718;23.270;2022-07-29T03:43:09;35.30;;;32.10;;
3633;SDS011;1833;42.718;23.270;2022-07-29T03:45:38;33.70;;;30.20;;
3633;SDS011;1833;42.718;23.270;2022-07-29T03:48:07;35.90;;;32.43;;
3633;SDS011;1833;42.718;23.270;2022-07-29T03:50:35;32.73;;;29.33;;
3633;SDS011;1833;42.718;23.270;2022-07-29T03:53:02;33.73;;;30.63;;
3633;SDS011;1833;42.718;23.270;2022-07-29T03:55:36;32.67;;;29.17;;
3633;SDS011;1833;42.718;23.270;2022-07-29T03:58:04;37.77;;;27.43;;
3633;SDS011;1833;42.718;23.270;2022-07-29T04:00:34;31.20;;;28.20;;
3633;SDS011;1833;42.718;23.270;2022-07-29T04:03:02;31.03;;;28.13;;
3633;SDS011;1833;42.718;23.270;2022-07-29T04:05:30;32.13;;;28.80;;
3633;SDS011;1833;42.718;23.270;2022-07-29T04:07:58;33.10;;;30.03;;
3633;SDS011;1833;42.718;23.270;2022-07-29T04:10:25;32.47;;;29.63;;
3633;SDS011;1833;42.718;23.270;2022-07-29T04:12:53;32.57;;;29.40;;
3633;SDS011;1833;42.718;23.270;2022-07-29T04:15:21;32.57;;;29.33;;
3633;SDS011;1833;42.718;23.270;2022-07-29T04:17:48;33.40;;;30.47;;
3633;SDS011;1833;42.718;23.270;2022-07-29T04:20:15;34.37;;;31.03;;
3633;SDS011;1833;42.718;23.270;2022-07-29T04:22:43;33.30;;;30.10;;
3633;SDS011;1833;42.718;23.270;2022-07-29T04:25:10;32.73;;;29.57;;
3633;SDS011;1833;42.718;23.270;2022-07-29T04:27:38;31.07;;;28.40;;
3633;SDS011;1833;42.718;23.270;2022-07-29T04:30:26;33.00;;;29.50;;
3633;SDS011;1833;42.718;23.270;2022-07-29T04:32:53;33.13;;;30.10;;
3633;SDS011;1833;42.718;23.270;2022-07-29T04:35:23;32.47;;;29.60;;
3633;SDS011;1833;42.718;23.270;2022-07-29T04:37:51;32.10;;;29.13;;
3633;SDS011;1833;42.718;23.270;2022-07-29T04:40:18;32.67;;;29.80;;
3633;SDS011;1833;42.718;23.270;2022-07-29T04:42:45;34.80;;;31.37;;
3633;SDS011;1833;42.718;23.270;2022-07-29T04:45:13;34.33;;;31.20;;
3633;SDS011;1833;42.718;23.270;2022-07-29T04:47:42;33.10;;;30.20;;
3633;SDS011;1833;42.718;23.270;2022-07-29T04:50:09;34.23;;;30.87;;
3633;SDS011;1833;42.718;23.270;2022-07-29T04:52:36;34.97;;;31.87;;
3633;SDS011;1833;42.718;23.270;2022-07-29T04:55:04;34.97;;;31.47;;
3633;SDS011;1833;42.718;23.270;2022-07-29T04:57:31;32.00;;;29.03;;
3633;SDS011;1833;42.718;23.270;2022-07-29T04:59:59;34.03;;;31.03;;
3633;SDS011;1833;42.718;23.270;2022-07-29T05:02:26;32.80;;;29.70;;
3633;SDS011;1833;42.718;23.270;2022-07-29T05:04:55;35.27;;;32.10;;
3633;SDS011;1833;42.718;23.270;2022-07-29T05:07:22;32.00;;;29.30;;
3633;SDS011;1833;42.718;23.270;2022-07-29T05:09:49;32.73;;;29.77;;
3633;SDS011;1833;42.718;23.270;2022-07-29T05:12:18;34.30;;;31.20;;
3633;SDS011;1833;42.718;23.270;2022-07-29T05:14:45;31.63;;;28.80;;
3633;SDS011;1833;42.718;23.270;2022-07-29T05:17:12;34.63;;;31.10;;
3633;SDS011;1833;42.718;23.270;2022-07-29T05:19:39;33.57;;;30.40;;
3633;SDS011;1833;42.718;23.270;2022-07-29T05:22:08;33.83;;;30.73;;
3633;SDS011;1833;42.718;23.270;2022-07-29T05:24:35;35.10;;;31.77;;
3633;SDS011;1833;42.718;23.270;2022-07-29T05:27:03;36.67;;;32.50;;
3633;SDS011;1833;42.718;23.270;2022-07-29T05:29:30;36.87;;;33.07;;
3633;SDS011;1833;42.718;23.270;2022-07-29T05:31:57;35.97;;;32.57;;
3633;SDS011;1833;42.718;23.270;2022-07-29T05:34:25;35.23;;;31.40;;
3633;SDS011;1833;42.718;23.270;2022-07-29T05:36:52;35.00;;;31.63;;
3633;SDS011;1833;42.718;23.270;2022-07-29T05:39:20;34.50;;;31.40;;
3633;SDS011;1833;42.718;23.270;2022-07-29T05:41:48;35.67;;;31.93;;
3633;SDS011;1833;42.718;23.270;2022-07-29T05:44:15;35.40;;;32.10;;
3633;SDS011;1833;42.718;23.270;2022-07-29T05:46:42;34.20;;;31.10;;
3633;SDS011;1833;42.718;23.270;2022-07-29T05:49:10;40.87;;;32.10;;
3633;SDS011;1833;42.718;23.270;2022-07-29T05:51:37;35.67;;;31.90;;
3633;SDS011;1833;42.718;23.270;2022-07-29T05:54:05;42.73;;;32.40;;
3633;SDS011;1833;42.718;23.270;2022-07-29T05:56:35;34.57;;;31.33;;
3633;SDS011;1833;42.718;23.270;2022-07-29T05:59:02;42.67;;;31.90;;
3633;SDS011;1833;42.718;23.270;2022-07-29T06:01:30;33.65;;;30.48;;
3633;SDS011;1833;42.718;23.270;2022-07-29T06:03:57;34.75;;;31.67;;
3633;SDS011;1833;42.718;23.270;2022-07-29T06:06:24;34.33;;;31.10;;
3633;SDS011;1833;42.718;23.270;2022-07-29T06:08:52;37.75;;;31.67;;
3633;SDS011;1833;42.718;23.270;2022-07-29T06:11:19;33.85;;;30.58;;
3633;SDS011;1833;42.718;23.270;2022-07-29T06:13:48;35.05;;;31.88;;
3633;SDS011;1833;42.718;23.270;2022-07-29T06:16:15;33.65;;;30.35;;
3633;SDS011;1833;42.718;23.270;2022-07-29T06:18:42;32.65;;;29.50;;
3633;SDS011;1833;42.718;23.270;2022-07-29T06:21:09;34.75;;;31.60;;
3633;SDS011;1833;42.718;23.270;2022-07-29T06:23:37;34.50;;;31.27;;
3633;SDS011;1833;42.718;23.270;2022-07-29T06:26:04;35.95;;;32.22;;
3633;SDS011;1833;42.718;23.270;2022-07-29T06:28:32;32.95;;;30.05;;
3633;SDS011;1833;42.718;23.270;2022-07-29T06:31:00;34.80;;;31.48;;
3633;SDS011;1833;42.718;23.270;2022-07-29T06:33:28;34.88;;;31.08;;
3633;SDS011;1833;42.718;23.270;2022-07-29T06:35:55;35.30;;;32.15;;
3633;SDS011;1833;42.718;23.270;2022-07-29T06:38:22;35.13;;;31.45;;
3633;SDS011;1833;42.718;23.270;2022-07-29T06:40:49;33.17;;;30.05;;
3633;SDS011;1833;42.718;23.270;2022-07-29T06:43:27;32.63;;;29.73;;
3633;SDS011;1833;42.718;23.270;2022-07-29T06:45:56;32.90;;;29.70;;
3633;SDS011;1833;42.718;23.270;2022-07-29T06:48:25;40.53;;;31.60;;
3633;SDS011;1833;42.718;23.270;2022-07-29T06:50:52;33.70;;;30.90;;
3633;SDS011;1833;42.718;23.270;2022-07-29T06:53:19;29.80;;;27.20;;
3633;SDS011;1833;42.718;23.270;2022-07-29T06:55:47;26.38;;;24.25;;
3633;SDS011;1833;42.718;23.270;2022-07-29T06:58:14;26.95;;;24.83;;
3633;SDS011;1833;42.718;23.270;2022-07-29T07:00:43;28.42;;;25.83;;
3633;SDS011;1833;42.718;23.270;2022-07-29T07:03:10;24.27;;;22.60;;
3633;SDS011;1833;42.718;23.270;2022-07-29T07:05:39;26.48;;;24.40;;
3633;SDS011;1833;42.718;23.270;2022-07-29T07:08:06;28.30;;;25.35;;
3633;SDS011;1833;42.718;23.270;2022-07-29T07:10:34;25.70;;;23.63;;
3633;SDS011;1833;42.718;23.270;2022-07-29T07:13:01;25.98;;;23.92;;
3633;SDS011;1833;42.718;23.270;2022-07-29T07:15:28;28.73;;;25.92;;
3633;SDS011;1833;42.718;23.270;2022-07-29T07:17:56;24.58;;;22.67;;
3633;SDS011;1833;42.718;23.270;2022-07-29T07:20:23;27.45;;;25.35;;
3633;SDS011;1833;42.718;23.270;2022-07-29T07:22:52;24.38;;;22.35;;
3633;SDS011;1833;42.718;23.270;2022-07-29T07:25:19;27.10;;;24.88;;
3633;SDS011;1833;42.718;23.270;2022-07-29T07:27:47;25.10;;;23.05;;
3633;SDS011;1833;42.718;23.270;2022-07-29T07:30:14;25.88;;;23.77;;
3633;SDS011;1833;42.718;23.270;2022-07-29T07:32:41;25.30;;;23.45;;
3633;SDS011;1833;42.718;23.270;2022-07-29T07:35:09;24.48;;;22.63;;
3633;SDS011;1833;42.718;23.270;2022-07-29T07:37:36;25.73;;;23.42;;
3633;SDS011;1833;42.718;23.270;2022-07-29T07:40:07;25.92;;;23.35;;
3633;SDS011;1833;42.718;23.270;2022-07-29T07:42:35;25.40;;;23.60;;
3633;SDS011;1833;42.718;23.270;2022-07-29T07:45:02;25.38;;;22.60;;
3633;SDS011;1833;42.718;23.270;2022-07-29T07:47:31;25.08;;;22.63;;
3633;SDS011;1833;42.718;23.270;2022-07-29T07:49:58;23.98;;;22.38;;
3633;SDS011;1833;42.718;23.270;2022-07-29T07:52:25;24.52;;;22.63;;
3633;SDS011;1833;42.718;23.270;2022-07-29T07:54:52;23.95;;;22.00;;
3633;SDS011;1833;42.718;23.270;2022-07-29T07:57:21;24.15;;;22.45;;
3633;SDS011;1833;42.718;23.270;2022-07-29T07:59:48;25.77;;;23.70;;
3633;SDS011;1833;42.718;23.270;2022-07-29T08:02:16;24.92;;;22.70;;
3633;SDS011;1833;42.718;23.270;2022-07-29T08:04:43;25.25;;;23.40;;
3633;SDS011;1833;42.718;23.270;2022-07-29T08:07:10;24.90;;;23.08;;
3633;SDS011;1833;42.718;23.270;2022-07-29T08:09:39;26.92;;;24.67;;
3633;SDS011;1833;42.718;23.270;2022-07-29T08:12:07;24.65;;;22.45;;
3633;SDS011;1833;42.718;23.270;2022-07-29T08:14:38;26.10;;;24.17;;
3633;SDS011;1833;42.718;23.270;2022-07-29T08:17:05;24.40;;;22.73;;
3633;SDS011;1833;42.718;23.270;2022-07-29T08:19:33;24.77;;;23.08;;
3633;SDS011;1833;42.718;23.270;2022-07-29T08:22:01;25.00;;;23.30;;
3633;SDS011;1833;42.718;23.270;2022-07-29T08:24:28;25.50;;;23.20;;
3633;SDS011;1833;42.718;23.270;2022-07-29T08:27:17;24.23;;;22.63;;
3633;SDS011;1833;42.718;23.270;2022-07-29T08:29:47;25.02;;;23.23;;
3633;SDS011;1833;42.718;23.270;2022-07-29T08:32:14;25.83;;;23.85;;
3633;SDS011;1833;42.718;23.270;2022-07-29T08:34:41;25.17;;;23.38;;
3633;SDS011;1833;42.718;23.270;2022-07-29T08:37:11;23.63;;;22.02;;
3633;SDS011;1833;42.718;23.270;2022-07-29T08:39:38;24.38;;;22.58;;
3633;SDS011;1833;42.718;23.270;2022-07-29T08:42:06;24.33;;;22.10;;
3633;SDS011;1833;42.718;23.270;2022-07-29T08:44:34;23.83;;;22.23;;
3633;SDS011;1833;42.718;23.270;2022-07-29T08:47:04;23.38;;;21.75;;
3633;SDS011;1833;42.718;23.270;2022-07-29T08:49:32;25.17;;;23.38;;
3633;SDS011;1833;42.718;23.270;2022-07-29T08:52:00;25.02;;;23.23;;
3633;SDS011;1833;42.718;23.270;2022-07-29T08:54:28;24.17;;;22.38;;
3633;SDS011;1833;42.718;23.270;2022-07-29T08:56:55;25.38;;;23.48;;
3633;SDS011;1833;42.718;23.270;2022-07-29T08:59:22;25.65;;;23.83;;
3633;SDS011;1833;42.718;23.270;2022-07-29T09:01:52;24.60;;;22.90;;
3633;SDS011;1833;42.718;23.270;2022-07-29T09:04:21;24.80;;;22.90;;
3633;SDS011;1833;42.718;23.270;2022-07-29T09:06:51;25.40;;;23.70;;
3633;SDS011;1833;42.718;23.270;2022-07-29T09:09:18;26.05;;;23.63;;
3633;SDS011;1833;42.718;23.270;2022-07-29T09:11:46;25.02;;;23.00;;
3633;SDS011;1833;42.718;23.270;2022-07-29T09:14:13;24.65;;;22.80;;
3633;SDS011;1833;42.718;23.270;2022-07-29T09:16:44;24.90;;;23.30;;
3633;SDS011;1833;42.718;23.270;2022-07-29T09:19:19;24.60;;;23.00;;
3633;SDS011;1833;42.718;23.270;2022-07-29T09:21:48;25.00;;;23.25;;
3633;SDS011;1833;42.718;23.270;2022-07-29T09:24:25;24.55;;;22.95;;
3633;SDS011;1833;42.718;23.270;2022-07-29T09:26:52;25.17;;;23.15;;
3633;SDS011;1833;42.718;23.270;2022-07-29T09:29:21;25.27;;;23.38;;
3633;SDS011;1833;42.718;23.270;2022-07-29T09:31:49;24.92;;;23.13;;
3633;SDS011;1833;42.718;23.270;2022-07-29T09:34:21;24.70;;;22.83;;
3633;SDS011;1833;42.718;23.270;2022-07-29T09:36:50;24.00;;;22.35;;
3633;SDS011;1833;42.718;23.270;2022-07-29T09:39:26;23.98;;;22.38;;
3633;SDS011;1833;42.718;23.270;2022-07-29T09:41:54;25.08;;;22.63;;
3633;SDS011;1833;42.718;23.270;2022-07-29T09:44:22;25.63;;;23.63;;
3633;SDS011;1833;42.718;23.270;2022-07-29T09:46:53;24.70;;;23.00;;
3633;SDS011;1833;42.718;23.270;2022-07-29T09:49:21;24.40;;;22.75;;
3633;SDS011;1833;42.718;23.270;2022-07-29T09:51:59;24.80;;;23.10;;
3633;SDS011;1833;42.718;23.270;2022-07-29T09:54:27;24.77;;;23.08;;
3633;SDS011;1833;42.718;23.270;2022-07-29T09:56:59;25.17;;;23.42;;
3633;SDS011;1833;42.718;23.270;2022-07-29T09:59:26;24.02;;;22.42;;
3633;SDS011;1833;42.718;23.270;2022-07-29T10:01:54;25.48;;;23.77;;
3633;SDS011;1833;42.718;23.270;2022-07-29T10:04:21;25.65;;;23.85;;
3633;SDS011;1833;42.718;23.270;2022-07-29T10:06:58;24.08;;;22.38;;
3633;SDS011;1833;42.718;23.270;2022-07-29T10:09:27;24.88;;;23.00;;
3633;SDS011;1833;42.718;23.270;2022-07-29T10:12:05;24.17;;;22.58;;
3633;SDS011;1833;42.718;23.270;2022-07-29T10:14:33;25.83;;;23.73;;
3633;SDS011;1833;42.718;23.270;2022-07-29T10:17:01;25.75;;;23.90;;
3633;SDS011;1833;42.718;23.270;2022-07-29T10:19:28;24.60;;;23.00;;
3633;SDS011;1833;42.718;23.270;2022-07-29T10:21:57;26.70;;;24.45;;
3633;SDS011;1833;42.718;23.270;2022-07-29T10:24:25;25.58;;;23.75;;
3633;SDS011;1833;42.718;23.270;2022-07-29T10:26:55;25.38;;;23.48;;
3633;SDS011;1833;42.718;23.270;2022-07-29T10:29:23;26.20;;;23.85;;
3633;SDS011;1833;42.718;23.270;2022-07-29T10:31:54;23.40;;;21.58;;
3633;SDS011;1833;42.718;23.270;2022-07-29T10:34:27;24.23;;;22.42;;
3633;SDS011;1833;42.718;23.270;2022-07-29T10:37:01;23.33;;;21.73;;
3633;SDS011;1833;42.718;23.270;2022-07-29T10:39:35;23.92;;;22.27;;
3633;SDS011;1833;42.718;23.270;2022-07-29T10:42:08;25.35;;;23.50;;
3633;SDS011;1833;42.718;23.270;2022-07-29T10:44:39;25.30;;;23.10;;
3633;SDS011;1833;42.718;23.270;2022-07-29T10:47:07;24.20;;;22.60;;
3633;SDS011;1833;42.718;23.270;2022-07-29T10:49:34;25.50;;;23.55;;
3633;SDS011;1833;42.718;23.270;2022-07-29T10:52:03;24.65;;;22.95;;
3633;SDS011;1833;42.718;23.270;2022-07-29T10:54:43;24.67;;;22.88;;
3633;SDS011;1833;42.718;23.270;2022-07-29T10:57:17;25.25;;;23.25;;
3633;SDS011;1833;42.718;23.270;2022-07-29T10:59:46;24.73;;;22.98;;
3633;SDS011;1833;42.718;23.270;2022-07-29T11:05:01;24.33;;;22.25;;
3633;SDS011;1833;42.718;23.270;2022-07-29T11:07:29;23.15;;;21.45;;
3633;SDS011;1833;42.718;23.270;2022-07-29T11:12:46;24.67;;;22.98;;
3633;SDS011;1833;42.718;23.270;2022-07-29T11:15:14;24.88;;;23.02;;
3633;SDS011;1833;42.718;23.270;2022-07-29T11:20:37;24.33;;;22.52;;
3633;SDS011;1833;42.718;23.270;2022-07-29T11:23:17;25.60;;;23.83;;
3633;SDS011;1833;42.718;23.270;2022-07-29T11:25:44;24.52;;;22.90;;
3633;SDS011;1833;42.718;23.270;2022-07-29T11:28:15;23.35;;;21.77;;
3633;SDS011;1833;42.718;23.270;2022-07-29T11:30:49;24.70;;;23.00;;
3633;SDS011;1833;42.718;23.270;2022-07-29T11:33:26;23.58;;;21.88;;
3633;SDS011;1833;42.718;23.270;2022-07-29T11:36:06;25.05;;;22.95;;
3633;SDS011;1833;42.718;23.270;2022-07-29T11:38:34;24.17;;;22.15;;
3633;SDS011;1833;42.718;23.270;2022-07-29T11:41:18;28.50;;;23.20;;
3633;SDS011;1833;42.718;23.270;2022-07-29T11:43:48;24.52;;;22.70;;
3633;SDS011;1833;42.718;23.270;2022-07-29T11:46:16;24.38;;;22.63;;
3633;SDS011;1833;42.718;23.270;2022-07-29T11:48:44;24.38;;;22.50;;
3633;SDS011;1833;42.718;23.270;2022-07-29T11:51:11;24.45;;;22.63;;
3633;SDS011;1833;42.718;23.270;2022-07-29T11:53:39;25.80;;;23.42;;
3633;SDS011;1833;42.718;23.270;2022-07-29T11:56:08;24.83;;;22.90;;
3633;SDS011;1833;42.718;23.270;2022-07-29T11:58:35;25.10;;;23.30;;
3633;SDS011;1833;42.718;23.270;2022-07-29T12:01:05;25.48;;;23.67;;
3633;SDS011;1833;42.718;23.270;2022-07-29T12:03:32;25.30;;;23.33;;
3633;SDS011;1833;42.718;23.270;2022-07-29T12:06:00;25.27;;;23.33;;
3633;SDS011;1833;42.718;23.270;2022-07-29T12:08:27;25.40;;;23.30;;
3633;SDS011;1833;42.718;23.270;2022-07-29T12:10:54;26.00;;;24.05;;
3633;SDS011;1833;42.718;23.270;2022-07-29T12:13:22;23.67;;;22.08;;
3633;SDS011;1833;42.718;23.270;2022-07-29T12:15:53;23.80;;;22.20;;
3633;SDS011;1833;42.718;23.270;2022-07-29T12:18:23;25.00;;;23.20;;
3633;SDS011;1833;42.718;23.270;2022-07-29T12:20:56;24.33;;;22.73;;
3633;SDS011;1833;42.718;23.270;2022-07-29T12:23:23;25.23;;;23.33;;
3633;SDS011;1833;42.718;23.270;2022-07-29T12:25:50;25.40;;;23.60;;
3633;SDS011;1833;42.718;23.270;2022-07-29T12:28:18;24.52;;;22.52;;
3633;SDS011;1833;42.718;23.270;2022-07-29T12:30:48;25.60;;;23.65;;
3633;SDS011;1833;42.718;23.270;2022-07-29T12:33:17;25.42;;;23.50;;
3633;SDS011;1833;42.718;23.270;2022-07-29T12:35:46;26.60;;;24.27;;
3633;SDS011;1833;42.718;23.270;2022-07-29T12:38:14;25.25;;;23.02;;
3633;SDS011;1833;42.718;23.270;2022-07-29T12:40:42;25.65;;;23.55;;
3633;SDS011;1833;42.718;23.270;2022-07-29T12:43:11;25.63;;;23.40;;
3633;SDS011;1833;42.718;23.270;2022-07-29T12:45:39;25.45;;;23.27;;
3633;SDS011;1833;42.718;23.270;2022-07-29T12:48:07;26.40;;;24.15;;
3633;SDS011;1833;42.718;23.270;2022-07-29T12:50:35;26.05;;;24.15;;
3633;SDS011;1833;42.718;23.270;2022-07-29T12:53:13;25.60;;;23.73;;
3633;SDS011;1833;42.718;23.270;2022-07-29T12:55:44;25.55;;;23.70;;
3633;SDS011;1833;42.718;23.270;2022-07-29T12:58:14;26.80;;;24.58;;
3633;SDS011;1833;42.718;23.270;2022-07-29T13:00:41;26.85;;;24.95;;
3633;SDS011;1833;42.718;23.270;2022-07-29T13:03:08;25.30;;;23.00;;
3633;SDS011;1833;42.718;23.270;2022-07-29T13:05:39;26.48;;;24.45;;
3633;SDS011;1833;42.718;23.270;2022-07-29T13:08:10;26.70;;;24.75;;
3633;SDS011;1833;42.718;23.270;2022-07-29T13:10:39;25.17;;;23.48;;
3633;SDS011;1833;42.718;23.270;2022-07-29T13:13:07;25.75;;;23.65;;
3633;SDS011;1833;42.718;23.270;2022-07-29T13:15:35;25.90;;;23.77;;
3633;SDS011;1833;42.718;23.270;2022-07-29T13:18:03;26.65;;;24.42;;
3633;SDS011;1833;42.718;23.270;2022-07-29T13:20:31;25.88;;;24.08;;
3633;SDS011;1833;42.718;23.270;2022-07-29T13:22:58;27.10;;;25.00;;
3633;SDS011;1833;42.718;23.270;2022-07-29T13:25:27;27.13;;;24.38;;
3633;SDS011;1833;42.718;23.270;2022-07-29T13:27:56;25.95;;;24.05;;
3633;SDS011;1833;42.718;23.270;2022-07-29T13:30:23;27.70;;;25.70;;
3633;SDS011;1833;42.718;23.270;2022-07-29T13:32:50;27.88;;;25.67;;
3633;SDS011;1833;42.718;23.270;2022-07-29T13:35:18;27.50;;;25.50;;
3633;SDS011;1833;42.718;23.270;2022-07-29T13:37:46;27.40;;;24.98;;
3633;SDS011;1833;42.718;23.270;2022-07-29T13:40:13;27.90;;;25.90;;
3633;SDS011;1833;42.718;23.270;2022-07-29T13:42:41;27.75;;;25.70;;
3633;SDS011;1833;42.718;23.270;2022-07-29T13:45:10;28.85;;;26.75;;
3633;SDS011;1833;42.718;23.270;2022-07-29T13:47:37;27.88;;;25.75;;
3633;SDS011;1833;42.718;23.270;2022-07-29T13:50:05;27.95;;;25.92;;
3633;SDS011;1833;42.718;23.270;2022-07-29T13:52:33;27.83;;;25.88;;
3633;SDS011;1833;42.718;23.270;2022-07-29T13:55:00;26.83;;;24.65;;
3633;SDS011;1833;42.718;23.270;2022-07-29T13:57:28;27.80;;;25.80;;
3633;SDS011;1833;42.718;23.270;2022-07-29T13:59:55;27.27;;;25.17;;
3633;SDS011;1833;42.718;23.270;2022-07-29T14:02:24;26.98;;;24.88;;
3633;SDS011;1833;42.718;23.270;2022-07-29T14:04:52;27.10;;;25.08;;
3633;SDS011;1833;42.718;23.270;2022-07-29T14:07:19;26.75;;;24.83;;
3633;SDS011;1833;42.718;23.270;2022-07-29T14:09:46;27.27;;;25.38;;
3633;SDS011;1833;42.718;23.270;2022-07-29T14:12:13;26.80;;;24.80;;
3633;SDS011;1833;42.718;23.270;2022-07-29T14:14:41;28.08;;;25.70;;
3633;SDS011;1833;42.718;23.270;2022-07-29T14:17:08;28.27;;;25.98;;
3633;SDS011;1833;42.718;23.270;2022-07-29T14:19:37;27.55;;;25.45;;
3633;SDS011;1833;42.718;23.270;2022-07-29T14:22:04;27.65;;;25.63;;
3633;SDS011;1833;42.718;23.270;2022-07-29T14:24:32;26.10;;;24.20;;
3633;SDS011;1833;42.718;23.270;2022-07-29T14:27:00;28.20;;;26.13;;
3633;SDS011;1833;42.718;23.270;2022-07-29T14:29:27;27.08;;;24.63;;
3633;SDS011;1833;42.718;23.270;2022-07-29T14:31:54;26.63;;;24.75;;
3633;SDS011;1833;42.718;23.270;2022-07-29T14:34:21;30.13;;;27.85;;
3633;SDS011;1833;42.718;23.270;2022-07-29T14:36:50;26.92;;;24.90;;
3633;SDS011;1833;42.718;23.270;2022-07-29T14:39:20;28.70;;;26.50;;
3633;SDS011;1833;42.718;23.270;2022-07-29T14:41:48;26.23;;;24.42;;
3633;SDS011;1833;42.718;23.270;2022-07-29T14:44:16;25.98;;;24.00;;
3633;SDS011;1833;42.718;23.270;2022-07-29T14:46:43;26.48;;;24.58;;
3633;SDS011;1833;42.718;23.270;2022-07-29T14:49:11;26.38;;;24.38;;
3633;SDS011;1833;42.718;23.270;2022-07-29T14:51:38;27.00;;;25.10;;